createdAt,value
2019-04-23T00:00:03.717Z,16.20
2019-04-23T00:02:47.158Z,16.20
2019-04-23T00:08:22.729Z,16.10
2019-04-23T00:13:43.857Z,16.10
2019-04-23T00:16:36.409Z,16.10
2019-04-23T00:19:08.319Z,16.00
2019-04-23T00:22:13.359Z,16.00
2019-04-23T00:30:27.580Z,15.90
2019-04-23T00:33:07.509Z,15.90
2019-04-23T00:35:44.064Z,15.80
2019-04-23T00:38:33.506Z,15.70
2019-04-23T00:41:30.884Z,15.80
2019-04-23T00:46:41.462Z,15.80
2019-04-23T00:49:27.019Z,15.70
2019-04-23T00:52:16.425Z,15.80
2019-04-23T00:54:57.512Z,15.70
2019-04-23T00:57:50.187Z,15.70
2019-04-23T01:05:44.725Z,15.60
2019-04-23T01:11:14.804Z,15.50
2019-04-23T01:13:54.026Z,15.50
2019-04-23T01:16:37.495Z,15.50
2019-04-23T01:19:31.677Z,15.50
2019-04-23T01:22:12.579Z,15.40
2019-04-23T01:28:47.962Z,15.40
2019-04-23T01:31:47.554Z,15.40
2019-04-23T01:34:20.196Z,15.30
2019-04-23T01:36:57.476Z,15.30
2019-04-23T01:39:38.350Z,15.30
2019-04-23T01:42:29.010Z,15.30
2019-04-23T01:45:18.409Z,15.30
2019-04-23T01:47:49.594Z,15.20
2019-04-23T01:50:41.454Z,15.20
2019-04-23T01:53:18.438Z,15.20
2019-04-23T01:55:59.207Z,15.20
2019-04-23T02:01:25.759Z,15.10
2019-04-23T02:04:11.290Z,15.10
2019-04-23T02:06:53.723Z,15.10
2019-04-23T02:09:55.750Z,15.10
2019-04-23T02:12:21.427Z,15.00
2019-04-23T02:15:10.277Z,15.10
2019-04-23T02:17:47.441Z,15.00
2019-04-23T02:20:29.306Z,15.00
2019-04-23T02:23:32.663Z,15.00
2019-04-23T02:26:15.198Z,14.90
2019-04-23T02:29:03.542Z,14.90
2019-04-23T02:31:57.600Z,14.80
2019-04-23T02:37:35.071Z,14.80
2019-04-23T02:40:26.286Z,14.70
2019-04-23T02:43:01.635Z,14.70
2019-04-23T02:45:42.724Z,14.70
2019-04-23T02:53:55.620Z,14.50
2019-04-23T02:56:41.434Z,14.60
2019-04-23T03:02:41.369Z,14.50
2019-04-23T03:05:36.645Z,14.40
2019-04-23T03:16:33.922Z,14.30
2019-04-23T03:19:09.776Z,14.20
2019-04-23T03:24:55.097Z,14.30
2019-04-23T03:27:34.210Z,14.30
2019-04-23T03:30:49.601Z,14.20
2019-04-23T03:38:48.662Z,14.20
2019-04-23T03:43:57.171Z,14.10
2019-04-23T03:46:44.081Z,14.00
2019-04-23T03:49:30.052Z,13.90
2019-04-23T03:52:21.318Z,13.80
2019-04-23T03:55:11.700Z,13.80
2019-04-23T04:05:56.155Z,13.50
2019-04-23T04:08:55.961Z,13.50
2019-04-23T04:14:12.495Z,13.40
2019-04-23T04:16:45.028Z,13.40
2019-04-23T04:19:42.327Z,13.40
2019-04-23T04:22:13.541Z,13.20
2019-04-23T04:27:45.355Z,13.20
2019-04-23T04:30:54.506Z,13.20
2019-04-23T04:41:58.839Z,13.10
2019-04-23T04:44:43.343Z,13.20
2019-04-23T04:47:24.185Z,13.20
2019-04-23T04:52:48.866Z,13.20
2019-04-23T04:55:26.695Z,13.10
2019-04-23T04:58:18.064Z,13.10
2019-04-23T05:01:04.196Z,13.20
2019-04-23T05:03:29.693Z,13.20
2019-04-23T05:09:00.643Z,13.20
2019-04-23T05:14:35.406Z,13.30
2019-04-23T05:17:24.066Z,13.30
2019-04-23T05:20:21.098Z,13.40
2019-04-23T05:23:19.505Z,13.40
2019-04-23T05:25:45.744Z,13.50
2019-04-23T05:28:33.031Z,13.50
2019-04-23T05:31:17.669Z,13.50
2019-04-23T05:36:40.187Z,13.50
2019-04-23T05:41:58.938Z,13.70
2019-04-23T05:44:50.246Z,13.70
2019-04-23T05:47:39.916Z,13.80
2019-04-23T05:50:17.454Z,13.80
2019-04-23T05:53:02.499Z,14.00
2019-04-23T05:55:46.037Z,14.00
2019-04-23T06:01:22.187Z,14.30
2019-04-23T06:03:58.223Z,14.30
2019-04-23T06:06:38.998Z,14.50
2019-04-23T06:09:22.143Z,14.60
2019-04-23T06:12:24.921Z,14.70
2019-04-23T06:14:57.346Z,14.80
2019-04-23T06:17:39.265Z,14.90
2019-04-23T06:20:27.609Z,15.00
2019-04-23T06:23:30.374Z,15.20
2019-04-23T06:31:20.268Z,15.70
2019-04-23T06:34:04.241Z,15.80
2019-04-23T06:39:33.195Z,16.00
2019-04-23T06:42:08.019Z,16.00
2019-04-23T06:50:14.777Z,16.20
2019-04-23T06:52:57.422Z,16.30
2019-04-23T06:55:49.447Z,16.20
2019-04-23T06:58:34.233Z,16.30
2019-04-23T07:01:12.981Z,16.30
2019-04-23T07:04:02.967Z,16.40
2019-04-23T07:06:38.367Z,16.40
2019-04-23T07:09:13.585Z,16.40
2019-04-23T07:12:05.324Z,16.40
2019-04-23T07:14:51.431Z,16.40
2019-04-23T07:17:24.985Z,16.50
2019-04-23T07:20:14.178Z,16.50
2019-04-23T07:25:39.060Z,16.70
2019-04-23T07:28:39.359Z,16.80
2019-04-23T07:31:19.207Z,17.00
2019-04-23T07:33:57.663Z,16.80
2019-04-23T07:36:41.116Z,16.90
2019-04-23T07:39:23.009Z,17.10
2019-04-23T07:45:09.409Z,17.30
2019-04-23T07:50:53.566Z,17.50
2019-04-23T07:53:40.112Z,17.40
2019-04-23T07:56:21.450Z,17.40
2019-04-23T07:59:07.353Z,17.60
2019-04-23T08:01:49.183Z,17.80
2019-04-23T08:04:35.518Z,17.80
2019-04-23T08:07:17.904Z,17.80
2019-04-23T08:10:03.415Z,17.90
2019-04-23T08:12:49.285Z,18.10
2019-04-23T08:15:28.314Z,18.20
2019-04-23T08:18:07.152Z,18.30
2019-04-23T08:20:49.640Z,18.30
2019-04-23T08:23:38.276Z,18.30
2019-04-23T08:26:29.561Z,18.40
2019-04-23T08:29:12.234Z,18.60
2019-04-23T08:37:27.071Z,19.10
2019-04-23T08:40:25.228Z,19.10
2019-04-23T08:43:47.924Z,19.20
2019-04-23T08:46:46.711Z,19.30
2019-04-23T08:49:22.767Z,19.30
2019-04-23T08:57:30.721Z,19.20
2019-04-23T09:00:07.778Z,19.10
2019-04-23T09:03:12.860Z,19.00
2019-04-23T09:05:38.789Z,19.10
2019-04-23T09:08:27.361Z,19.10
2019-04-23T09:19:16.141Z,18.90
2019-04-23T09:22:05.956Z,19.20
2019-04-23T09:24:25.785Z,19.20
2019-04-23T09:27:34.709Z,19.20
2019-04-23T09:30:22.887Z,19.00
2019-04-23T09:33:06.823Z,19.40
2019-04-23T09:35:48.371Z,19.50
2019-04-23T09:39:12.950Z,19.70
2019-04-23T09:42:29.658Z,19.90
2019-04-23T09:45:11.105Z,20.20
2019-04-23T09:48:01.825Z,20.50
2019-04-23T09:50:52.494Z,20.60
2019-04-23T09:56:14.468Z,20.80
2019-04-23T09:59:02.487Z,20.50
2019-04-23T10:01:50.165Z,20.50
2019-04-23T10:04:13.504Z,20.70
2019-04-23T10:07:00.306Z,21.00
2019-04-23T10:09:27.347Z,21.00
2019-04-23T10:12:09.445Z,21.20
2019-04-23T10:14:59.009Z,21.40
2019-04-23T10:17:35.992Z,21.70
2019-04-23T10:20:18.247Z,21.90
2019-04-23T10:23:00.315Z,21.70
2019-04-23T10:25:43.669Z,21.60
2019-04-23T10:28:29.691Z,22.00
2019-04-23T10:31:12.500Z,22.20
2019-04-23T10:33:55.963Z,22.10
2019-04-23T10:36:38.651Z,22.70
2019-04-23T10:39:25.856Z,23.10
2019-04-23T10:42:05.767Z,23.20
2019-04-23T10:44:55.479Z,23.50
2019-04-23T10:48:24.731Z,23.40
2019-04-23T10:51:26.013Z,23.50
2019-04-23T10:53:56.265Z,23.60
2019-04-23T10:57:04.019Z,23.60
2019-04-23T10:59:35.034Z,23.80
2019-04-23T11:02:51.320Z,23.90
2019-04-23T11:05:59.121Z,24.40
2019-04-23T11:08:42.374Z,24.50
2019-04-23T11:11:29.285Z,23.90
2019-04-23T11:14:23.176Z,24.70
2019-04-23T11:19:54.518Z,27.50
2019-04-23T11:22:44.190Z,28.50
2019-04-23T11:25:15.456Z,28.40
2019-04-23T11:30:54.286Z,28.10
2019-04-23T11:39:42.988Z,29.20
2019-04-23T11:42:18.145Z,30.20
2019-04-23T11:48:14.201Z,31.70
2019-04-23T11:50:39.579Z,31.30
2019-04-23T11:50:49.913Z,30.80
2019-04-23T11:53:10.083Z,31.50
2019-04-23T11:58:47.718Z,31.50
2019-04-23T12:01:37.449Z,31.00
2019-04-23T12:07:14.730Z,31.50
2019-04-23T12:10:26.904Z,31.40
2019-04-23T12:12:53.446Z,31.50
2019-04-23T12:18:18.096Z,31.60
2019-04-23T12:24:58.837Z,32.40
2019-04-23T12:27:25.331Z,32.70
2019-04-23T12:30:03.680Z,33.20
2019-04-23T12:38:23.920Z,33.90
2019-04-23T12:40:57.839Z,34.60
2019-04-23T12:43:40.473Z,34.70
2019-04-23T12:46:29.801Z,34.10
2019-04-23T12:49:25.039Z,33.90
2019-04-23T12:51:54.813Z,33.20
2019-04-23T12:57:30.843Z,31.40
2019-04-23T13:02:48.512Z,33.20
2019-04-23T13:08:30.597Z,34.30
2019-04-23T13:11:23.259Z,33.90
2019-04-23T13:13:51.972Z,33.30
2019-04-23T13:16:58.997Z,33.50
2019-04-23T13:19:32.982Z,34.20
2019-04-23T13:22:08.202Z,33.80
2019-04-23T13:24:48.744Z,32.90
2019-04-23T13:27:41.615Z,32.20
2019-04-23T13:33:21.139Z,32.50
2019-04-23T13:36:17.451Z,32.50
2019-04-23T13:44:08.762Z,32.10
2019-04-23T13:46:59.981Z,31.60
2019-04-23T13:49:55.354Z,31.90
2019-04-23T13:58:14.703Z,31.60
2019-04-23T14:01:20.136Z,31.90
2019-04-23T14:10:04.693Z,33.00
2019-04-23T14:12:35.178Z,33.00
2019-04-23T14:15:21.645Z,32.80
2019-04-23T14:20:47.095Z,32.20
2019-04-23T14:23:44.208Z,31.80
2019-04-23T14:32:29.056Z,30.30
2019-04-23T14:35:28.799Z,29.60
2019-04-23T14:38:11.392Z,28.80
2019-04-23T14:43:25.748Z,28.40
2019-04-23T14:49:18.907Z,28.20
2019-04-23T14:52:10.477Z,28.30
2019-04-23T14:57:45.449Z,28.00
2019-04-23T15:00:31.564Z,27.60
2019-04-23T15:03:08.476Z,27.40
2019-04-23T15:05:56.820Z,26.90
2019-04-23T15:08:44.610Z,26.50
2019-04-23T15:13:53.877Z,25.90
2019-04-23T15:25:01.377Z,25.00
2019-04-23T15:30:08.672Z,24.30
2019-04-23T15:35:57.072Z,24.20
2019-04-23T15:41:13.844Z,24.30
2019-04-23T15:46:40.988Z,24.20
2019-04-23T15:49:22.932Z,24.20
2019-04-23T15:52:06.989Z,24.20
2019-04-23T15:54:50.549Z,24.10
2019-04-23T15:57:46.371Z,24.10
2019-04-23T16:00:10.753Z,24.00
2019-04-23T16:02:54.059Z,24.00
2019-04-23T16:05:37.115Z,23.80
2019-04-23T16:08:59.470Z,23.70
2019-04-23T16:17:04.164Z,23.60
2019-04-23T16:19:49.396Z,23.40
2019-04-23T16:22:26.839Z,23.30
2019-04-23T16:25:13.059Z,23.30
2019-04-23T16:27:59.667Z,23.30
2019-04-23T16:30:34.713Z,23.30
2019-04-23T16:33:11.133Z,23.30
2019-04-23T16:36:12.698Z,23.20
2019-04-23T16:41:30.963Z,23.10
2019-04-23T16:44:20.041Z,23.10
2019-04-23T16:47:04.430Z,23.10
2019-04-23T16:49:44.381Z,23.10
2019-04-23T16:52:21.892Z,23.00
2019-04-23T16:55:07.370Z,22.90
2019-04-23T16:57:59.388Z,22.90
2019-04-23T17:00:43.669Z,22.80
2019-04-23T17:06:03.968Z,22.60
2019-04-23T17:08:57.893Z,22.60
2019-04-23T17:14:17.880Z,22.40
2019-04-23T17:16:49.884Z,22.40
2019-04-23T17:19:56.972Z,22.40
2019-04-23T17:22:17.808Z,22.40
2019-04-23T17:25:22.402Z,22.30
2019-04-23T17:28:00.778Z,22.20
2019-04-23T17:30:32.327Z,22.20
2019-04-23T17:33:19.121Z,22.10
2019-04-23T17:36:13.195Z,22.00
2019-04-23T17:38:49.567Z,21.90
2019-04-23T17:41:38.953Z,21.80
2019-04-23T17:44:48.428Z,21.80
2019-04-23T17:47:28.541Z,21.70
2019-04-23T17:50:28.733Z,21.60
2019-04-23T17:53:15.190Z,21.60
2019-04-23T17:56:15.268Z,21.50
2019-04-23T18:06:50.280Z,21.00
2019-04-23T18:09:37.529Z,20.90
2019-04-23T18:12:31.042Z,20.90
2019-04-23T18:15:03.498Z,20.80
2019-04-23T18:17:51.116Z,20.70
2019-04-23T18:23:41.313Z,20.50
2019-04-23T18:32:35.942Z,20.20
2019-04-23T18:35:21.499Z,20.10
2019-04-23T18:37:56.361Z,20.00
2019-04-23T18:41:00.823Z,19.80
2019-04-23T18:43:55.124Z,19.80
2019-04-23T18:46:36.963Z,19.70
2019-04-23T18:49:41.043Z,19.50
2019-04-23T18:55:06.748Z,19.30
2019-04-23T18:57:53.318Z,19.30
2019-04-23T19:00:49.630Z,19.30
2019-04-23T19:06:29.419Z,19.10
2019-04-23T19:17:46.663Z,18.80
2019-04-23T19:20:27.470Z,18.70
2019-04-23T19:23:21.064Z,18.70
2019-04-23T19:25:46.321Z,18.70
2019-04-23T19:31:44.390Z,18.60
2019-04-23T19:39:45.345Z,18.40
2019-04-23T19:42:42.510Z,18.40
2019-04-23T19:45:17.129Z,18.30
2019-04-23T19:50:48.526Z,18.20
2019-04-23T19:53:32.268Z,18.10
2019-04-23T20:01:55.290Z,17.60
2019-04-23T20:04:16.054Z,17.50
2019-04-23T20:07:12.287Z,17.40
2019-04-23T20:09:48.699Z,17.40
2019-04-23T20:12:33.397Z,17.40
2019-04-23T20:15:00.093Z,17.30
2019-04-23T20:17:54.131Z,17.20
2019-04-23T20:20:43.888Z,17.30
2019-04-23T20:23:40.353Z,17.30
2019-04-23T20:26:16.000Z,17.30
2019-04-23T20:29:29.726Z,17.10
2019-04-23T20:40:15.760Z,17.00
2019-04-23T20:42:52.886Z,17.00
2019-04-23T20:45:55.842Z,17.00
2019-04-23T20:48:53.628Z,17.10
2019-04-23T20:51:34.083Z,17.00
2019-04-23T20:54:28.719Z,17.00
2019-04-23T20:57:22.846Z,17.00
2019-04-23T21:05:50.415Z,17.30
2019-04-23T21:09:07.354Z,17.40
2019-04-23T21:17:18.695Z,17.40
2019-04-23T21:22:41.577Z,17.40
2019-04-23T21:25:26.576Z,17.40
2019-04-23T21:28:10.053Z,17.30
2019-04-23T21:31:19.750Z,17.40
2019-04-23T21:33:59.316Z,17.40
2019-04-23T21:36:37.664Z,17.30
2019-04-23T21:39:34.951Z,17.30
2019-04-23T21:42:51.742Z,17.30
2019-04-23T21:45:48.639Z,17.30
2019-04-23T21:48:15.729Z,17.20
2019-04-23T21:51:09.514Z,17.20
2019-04-23T21:53:46.363Z,17.20
2019-04-23T21:56:23.312Z,17.10
2019-04-23T21:59:06.995Z,17.10
2019-04-23T22:02:05.223Z,17.10
2019-04-23T22:07:27.374Z,17.00
2019-04-23T22:10:14.630Z,17.00
2019-04-23T22:13:09.596Z,17.00
2019-04-23T22:16:00.438Z,17.10
2019-04-23T22:18:25.935Z,17.10
2019-04-23T22:21:07.420Z,17.10
2019-04-23T22:23:59.556Z,17.00
2019-04-23T22:31:52.169Z,17.00
2019-04-23T22:37:24.055Z,16.90
2019-04-23T22:40:07.474Z,16.90
2019-04-23T22:45:48.471Z,16.80
2019-04-23T22:48:57.659Z,16.70
2019-04-23T22:51:58.604Z,16.60
2019-04-23T22:54:30.634Z,16.60
2019-04-23T22:57:45.231Z,16.60
2019-04-23T23:00:08.379Z,16.50
2019-04-23T23:09:01.134Z,16.30
2019-04-23T23:11:34.539Z,16.20
2019-04-23T23:17:02.281Z,15.90
2019-04-23T23:20:03.620Z,15.80
2019-04-23T23:22:28.246Z,15.70
2019-04-23T23:25:24.661Z,15.70
2019-04-23T23:28:12.164Z,15.60
2019-04-23T23:30:52.029Z,15.50
2019-04-23T23:36:08.642Z,15.40
2019-04-23T23:38:59.481Z,15.50
2019-04-23T23:41:35.694Z,15.50
2019-04-23T23:47:04.229Z,15.40
2019-04-23T23:49:48.431Z,15.40
2019-04-23T23:52:29.505Z,15.30
2019-04-23T23:57:53.802Z,15.40
